createdAt,value
2019-05-17T00:00:27.412Z,97878.41
2019-05-17T00:03:01.161Z,97874.89
2019-05-17T00:05:37.123Z,97882.10
2019-05-17T00:08:10.407Z,97877.24
2019-05-17T00:10:46.393Z,97867.83
2019-05-17T00:13:19.700Z,97869.17
2019-05-17T00:15:53.313Z,97871.86
2019-05-17T00:18:27.271Z,97863.11
2019-05-17T00:21:01.103Z,97859.08
2019-05-17T00:23:37.332Z,97859.94
2019-05-17T00:26:10.323Z,97856.39
2019-05-17T00:28:44.068Z,97852.35
2019-05-17T00:31:17.857Z,97856.08
2019-05-17T00:33:51.586Z,97860.12
2019-05-17T00:36:26.902Z,97848.53
2019-05-17T00:39:00.709Z,97849.36
2019-05-17T00:41:34.473Z,97850.34
2019-05-17T00:44:08.080Z,97855.05
2019-05-17T00:46:42.064Z,97850.88
2019-05-17T00:49:17.084Z,97847.37
2019-05-17T00:51:51.144Z,97850.05
2019-05-17T00:54:26.795Z,97851.92
2019-05-17T00:57:00.260Z,97849.23
2019-05-17T00:59:34.014Z,97843.33
2019-05-17T01:02:07.811Z,97844.03
2019-05-17T01:04:41.868Z,97843.54
2019-05-17T01:07:17.660Z,97848.06
2019-05-17T01:09:51.100Z,97853.44
2019-05-17T01:12:26.984Z,97850.45
2019-05-17T01:15:00.204Z,97845.58
2019-05-17T01:17:36.583Z,97843.41
2019-05-17T01:20:10.421Z,97848.80
2019-05-17T01:22:44.574Z,97850.66
2019-05-17T01:25:18.397Z,97847.97
2019-05-17T01:27:52.341Z,97842.59
2019-05-17T01:30:26.613Z,97841.73
2019-05-17T01:33:00.520Z,97843.59
2019-05-17T01:35:34.240Z,97844.42
2019-05-17T01:38:07.902Z,97849.48
2019-05-17T01:40:41.994Z,97838.42
2019-05-17T01:43:16.645Z,97834.39
2019-05-17T01:45:50.566Z,97834.88
2019-05-17T01:48:24.266Z,97830.02
2019-05-17T01:50:57.975Z,97834.05
2019-05-17T01:53:33.504Z,97833.53
2019-05-17T01:56:07.218Z,97835.39
2019-05-17T01:58:40.961Z,97840.77
2019-05-17T02:01:16.897Z,97839.43
2019-05-17T02:03:50.354Z,97838.91
2019-05-17T02:06:24.058Z,97839.95
2019-05-17T02:08:57.805Z,97836.73
2019-05-17T02:11:31.514Z,97835.09
2019-05-17T02:14:06.936Z,97833.74
2019-05-17T02:16:40.985Z,97831.05
2019-05-17T02:19:14.762Z,97832.58
2019-05-17T02:21:48.660Z,97827.72
2019-05-17T02:24:22.813Z,97838.47
2019-05-17T02:26:57.024Z,97830.41
2019-05-17T02:29:32.162Z,97831.44
2019-05-17T02:32:06.033Z,97825.20
2019-05-17T02:34:42.789Z,97819.34
2019-05-17T02:37:15.315Z,97822.34
2019-05-17T02:40:01.023Z,97818.00
2019-05-17T02:42:24.480Z,97821.69
2019-05-17T02:44:58.209Z,97819.00
2019-05-17T02:47:33.695Z,97821.69
2019-05-17T02:50:07.680Z,97823.25
2019-05-17T02:52:43.579Z,97830.28
2019-05-17T02:55:17.779Z,97827.59
2019-05-17T02:57:53.035Z,97835.66
2019-05-17T03:00:26.996Z,97833.48
2019-05-17T03:03:03.343Z,97831.31
2019-05-17T03:05:37.276Z,97830.97
2019-05-17T03:08:12.301Z,97828.80
2019-05-17T03:10:46.121Z,97830.48
2019-05-17T03:13:23.176Z,97826.94
2019-05-17T03:15:55.370Z,97832.31
2019-05-17T03:18:28.984Z,97822.91
2019-05-17T03:21:03.879Z,97824.77
2019-05-17T03:23:38.012Z,97833.88
2019-05-17T03:26:13.196Z,97830.15
2019-05-17T03:28:48.141Z,97828.50
2019-05-17T03:31:26.342Z,97836.22
2019-05-17T03:34:06.235Z,97837.91
2019-05-17T03:36:37.971Z,97839.25
2019-05-17T03:39:13.000Z,97841.59
2019-05-17T03:41:46.855Z,97841.59
2019-05-17T03:44:22.548Z,97845.02
2019-05-17T03:46:55.988Z,97845.32
2019-05-17T03:49:32.943Z,97845.02
2019-05-17T03:52:06.167Z,97848.53
2019-05-17T03:54:42.783Z,97848.19
2019-05-17T03:57:15.360Z,97845.84
2019-05-17T03:59:52.253Z,97842.33
2019-05-17T04:02:24.687Z,97840.12
2019-05-17T04:04:58.423Z,97837.95
2019-05-17T04:07:33.227Z,97842.81
2019-05-17T04:10:07.544Z,97846.02
2019-05-17T04:12:44.032Z,97851.09
2019-05-17T04:15:16.583Z,97861.84
2019-05-17T04:17:52.823Z,97864.19
2019-05-17T04:20:25.803Z,97865.88
2019-05-17T04:23:03.758Z,97863.70
2019-05-17T04:25:39.013Z,97862.36
2019-05-17T04:28:13.863Z,97866.87
2019-05-17T04:30:47.628Z,97862.84
2019-05-17T04:33:23.165Z,97867.73
2019-05-17T04:35:56.937Z,97866.39
2019-05-17T04:38:33.126Z,97863.70
2019-05-17T04:41:06.176Z,97864.19
2019-05-17T04:43:42.456Z,97873.59
2019-05-17T04:46:15.445Z,97867.87
2019-05-17T04:48:49.168Z,97871.91
2019-05-17T04:51:23.324Z,97874.45
2019-05-17T04:53:57.229Z,97867.87
2019-05-17T04:56:33.415Z,97866.52
2019-05-17T04:59:08.216Z,97864.14
2019-05-17T05:01:43.628Z,97865.80
2019-05-17T05:04:17.341Z,97863.58
2019-05-17T05:06:52.419Z,97860.06
2019-05-17T05:09:26.408Z,97861.07
2019-05-17T05:12:05.407Z,97869.66
2019-05-17T05:14:35.586Z,97872.86
2019-05-17T05:17:09.461Z,97869.34
2019-05-17T05:19:43.225Z,97868.95
2019-05-17T05:22:17.654Z,97865.23
2019-05-17T05:24:52.485Z,97873.61
2019-05-17T05:27:26.420Z,97868.44
2019-05-17T05:30:00.128Z,97867.79
2019-05-17T05:32:34.986Z,97861.72
2019-05-17T05:35:09.050Z,97856.65
2019-05-17T05:37:43.148Z,97857.99
2019-05-17T05:40:16.967Z,97862.02
2019-05-17T05:42:51.609Z,97861.33
2019-05-17T05:45:25.387Z,97861.51
2019-05-17T05:48:01.636Z,97863.38
2019-05-17T05:50:34.667Z,97867.61
2019-05-17T05:53:08.782Z,97876.20
2019-05-17T05:55:43.147Z,97870.17
2019-05-17T05:58:17.119Z,97879.20
2019-05-17T06:00:53.120Z,97878.16
2019-05-17T06:03:26.226Z,97877.16
2019-05-17T06:06:01.814Z,97876.64
2019-05-17T06:08:35.408Z,97879.32
2019-05-17T06:11:09.114Z,97876.55
2019-05-17T06:13:42.929Z,97884.96
2019-05-17T06:16:16.656Z,97884.63
2019-05-17T06:18:51.678Z,97890.52
2019-05-17T06:21:25.448Z,97887.83
2019-05-17T06:23:59.208Z,97892.81
2019-05-17T06:26:33.032Z,97890.47
2019-05-17T06:29:06.840Z,97893.47
2019-05-17T06:31:43.019Z,97896.16
2019-05-17T06:34:15.839Z,97899.36
2019-05-17T06:36:52.747Z,97898.72
2019-05-17T06:39:27.450Z,97896.55
2019-05-17T06:42:03.651Z,97898.92
2019-05-17T06:44:38.706Z,97905.30
2019-05-17T06:47:12.852Z,97904.78
2019-05-17T06:49:46.721Z,97902.09
2019-05-17T06:52:22.604Z,97899.09
2019-05-17T06:54:56.114Z,97898.41
2019-05-17T06:57:32.381Z,97904.44
2019-05-17T07:00:12.076Z,97897.89
2019-05-17T07:02:41.904Z,97900.19
2019-05-17T07:05:20.070Z,97892.33
2019-05-17T07:07:55.658Z,97893.98
2019-05-17T07:10:30.201Z,97898.67
2019-05-17T07:13:03.932Z,97897.81
2019-05-17T07:15:46.366Z,97901.53
2019-05-17T07:18:13.839Z,97904.92
2019-05-17T07:20:49.981Z,97902.44
2019-05-17T07:23:23.094Z,97907.81
2019-05-17T07:25:56.760Z,97906.13
2019-05-17T07:28:30.430Z,97905.95
2019-05-17T07:31:04.355Z,97906.47
2019-05-17T07:33:39.859Z,97900.75
2019-05-17T07:36:13.568Z,97898.41
2019-05-17T07:38:47.361Z,97897.23
2019-05-17T07:41:21.014Z,97902.61
2019-05-17T07:43:54.800Z,97901.09
2019-05-17T07:46:29.466Z,97908.77
2019-05-17T07:49:03.222Z,97904.87
2019-05-17T07:51:39.440Z,97904.74
2019-05-17T07:54:12.685Z,97903.39
2019-05-17T07:56:46.501Z,97897.71
2019-05-17T07:59:20.383Z,97907.30
2019-05-17T08:01:54.073Z,97900.06
2019-05-17T08:04:29.911Z,97908.12
2019-05-17T08:07:03.463Z,97900.41
2019-05-17T08:09:37.207Z,97899.23
2019-05-17T08:12:11.176Z,97908.12
2019-05-17T08:14:46.069Z,97905.64
2019-05-17T08:17:20.019Z,97909.16
2019-05-17T08:19:53.899Z,97903.27
2019-05-17T08:22:29.401Z,97900.27
2019-05-17T08:25:03.345Z,97895.20
2019-05-17T08:27:37.100Z,97896.36
2019-05-17T08:30:11.112Z,97899.05
2019-05-17T08:32:45.118Z,97894.68
2019-05-17T08:35:19.803Z,97894.38
2019-05-17T08:37:53.566Z,97891.34
2019-05-17T08:40:27.303Z,97897.23
2019-05-17T08:43:01.304Z,97890.52
2019-05-17T08:45:35.073Z,97893.72
2019-05-17T08:48:09.514Z,97890.73
2019-05-17T08:50:43.488Z,97894.76
2019-05-17T08:53:17.210Z,97902.30
2019-05-17T08:55:51.244Z,97905.82
2019-05-17T08:58:24.896Z,97909.86
2019-05-17T09:01:00.283Z,97904.66
2019-05-17T09:03:34.296Z,97895.77
2019-05-17T09:06:11.995Z,97903.65
2019-05-17T09:08:43.602Z,97887.91
2019-05-17T09:11:19.520Z,97891.73
2019-05-17T09:13:57.551Z,97895.77
2019-05-17T09:16:30.752Z,97899.09
2019-05-17T09:19:06.221Z,97895.20
2019-05-17T09:21:40.059Z,97899.22
2019-05-17T09:24:13.913Z,97890.45
2019-05-17T09:26:49.244Z,97891.20
2019-05-17T09:29:23.207Z,97893.90
2019-05-17T09:31:56.822Z,97889.87
2019-05-17T09:34:30.654Z,97892.55
2019-05-17T09:37:04.413Z,97885.83
2019-05-17T09:39:40.013Z,97891.16
2019-05-17T09:42:13.649Z,97886.48
2019-05-17T09:44:49.636Z,97885.00
2019-05-17T09:47:23.121Z,97887.69
2019-05-17T09:49:57.106Z,97887.38
2019-05-17T09:52:30.820Z,97876.94
2019-05-17T09:55:05.300Z,97879.63
2019-05-17T09:57:40.908Z,97880.97
2019-05-17T10:00:15.112Z,97879.63
2019-05-17T10:02:50.835Z,97884.00
2019-05-17T10:05:24.831Z,97875.08
2019-05-17T10:08:00.025Z,97882.14
2019-05-17T10:10:33.955Z,97875.08
2019-05-17T10:13:09.785Z,97876.24
2019-05-17T10:15:43.280Z,97869.21
2019-05-17T10:18:17.219Z,97871.52
2019-05-17T10:20:51.024Z,97876.55
2019-05-17T10:23:24.935Z,97879.24
2019-05-17T10:25:59.603Z,97876.69
2019-05-17T10:28:33.778Z,97873.81
2019-05-17T10:31:10.770Z,97871.39
2019-05-17T10:33:43.320Z,97877.15
2019-05-17T10:36:17.045Z,97875.20
2019-05-17T10:38:50.681Z,97868.48
2019-05-17T10:41:24.504Z,97869.34
2019-05-17T10:43:58.317Z,97864.09
2019-05-17T10:46:32.836Z,97862.85
2019-05-17T10:49:06.707Z,97862.02
2019-05-17T10:51:40.446Z,97866.14
2019-05-17T10:54:14.114Z,97861.59
2019-05-17T10:56:50.100Z,97857.69
2019-05-17T10:59:23.524Z,97859.68
2019-05-17T11:01:59.486Z,97860.69
2019-05-17T11:04:32.849Z,97863.06
2019-05-17T11:07:06.902Z,97865.75
2019-05-17T11:09:40.847Z,97866.27
2019-05-17T11:12:14.591Z,97857.99
2019-05-17T11:14:52.528Z,97859.86
2019-05-17T11:17:23.896Z,97857.30
2019-05-17T11:19:57.619Z,97855.82
2019-05-17T11:22:32.061Z,97862.37
2019-05-17T11:25:06.208Z,97862.37
2019-05-17T11:27:39.979Z,97853.44
2019-05-17T11:30:13.759Z,97850.96
2019-05-17T11:32:47.665Z,97854.04
2019-05-17T11:35:24.617Z,97854.55
2019-05-17T11:38:02.022Z,97850.70
2019-05-17T11:40:35.977Z,97855.52
2019-05-17T11:43:09.775Z,97848.58
2019-05-17T11:45:43.626Z,97855.12
2019-05-17T11:48:17.512Z,97849.79
2019-05-17T11:50:55.136Z,97854.68
2019-05-17T11:53:28.790Z,97845.02
2019-05-17T11:56:05.586Z,97842.33
2019-05-17T11:58:39.531Z,97843.59
2019-05-17T12:01:13.655Z,97838.55
2019-05-17T12:03:47.486Z,97832.84
2019-05-17T12:06:21.841Z,97830.80
2019-05-17T12:08:55.613Z,97830.80
2019-05-17T12:11:29.452Z,97833.17
2019-05-17T12:14:03.772Z,97834.52
2019-05-17T12:16:37.524Z,97845.27
2019-05-17T12:19:11.274Z,97838.55
2019-05-17T12:21:45.085Z,97837.21
2019-05-17T12:24:18.928Z,97841.24
2019-05-17T12:26:52.749Z,97836.17
2019-05-17T12:29:26.574Z,97839.69
2019-05-17T12:32:00.402Z,97835.48
2019-05-17T12:34:34.214Z,97823.86
2019-05-17T12:37:07.965Z,97828.41
2019-05-17T12:39:42.631Z,97823.03
2019-05-17T12:42:16.376Z,97827.41
2019-05-17T12:44:50.667Z,97818.00
2019-05-17T12:47:24.578Z,97825.20
2019-05-17T12:49:58.351Z,97826.38
2019-05-17T12:52:32.333Z,97821.52
2019-05-17T12:55:06.321Z,97831.44
2019-05-17T12:57:39.953Z,97824.72
2019-05-17T13:00:15.270Z,97831.44
2019-05-17T13:02:51.008Z,97831.93
2019-05-17T13:05:24.906Z,97830.92
2019-05-17T13:07:58.532Z,97830.09
2019-05-17T13:10:32.642Z,97826.89
2019-05-17T13:13:09.378Z,97823.38
2019-05-17T13:15:42.410Z,97822.03
2019-05-17T13:18:16.639Z,97826.68
2019-05-17T13:20:50.462Z,97826.68
2019-05-17T13:23:24.717Z,97819.34
2019-05-17T13:25:58.509Z,97821.91
2019-05-17T13:28:32.237Z,97827.28
2019-05-17T13:31:06.048Z,97819.83
2019-05-17T13:33:39.801Z,97819.00
2019-05-17T13:36:13.583Z,97823.38
2019-05-17T13:38:47.257Z,97815.80
2019-05-17T13:41:21.037Z,97813.11
2019-05-17T13:43:54.971Z,97806.38
2019-05-17T13:46:33.050Z,97810.42
2019-05-17T13:49:04.411Z,97818.00
2019-05-17T13:51:38.368Z,97819.83
2019-05-17T13:54:12.434Z,97819.00
2019-05-17T13:56:46.302Z,97819.00
2019-05-17T13:59:19.901Z,97814.97
2019-05-17T14:01:53.657Z,97812.28
2019-05-17T14:04:27.412Z,97817.66
2019-05-17T14:07:01.981Z,97815.61
2019-05-17T14:09:35.734Z,97813.97
2019-05-17T14:12:11.425Z,97819.34
2019-05-17T14:14:46.441Z,97808.38
2019-05-17T14:17:20.099Z,97812.23
2019-05-17T14:19:53.867Z,97818.61
2019-05-17T14:22:27.745Z,97817.27
2019-05-17T14:25:02.007Z,97815.31
2019-05-17T14:27:36.879Z,97807.23
2019-05-17T14:30:10.754Z,97817.14
2019-05-17T14:32:46.355Z,97819.34
2019-05-17T14:35:22.167Z,97817.14
2019-05-17T14:37:56.015Z,97814.14
2019-05-17T14:41:04.163Z,97817.35
2019-05-17T14:43:05.473Z,97816.31
2019-05-17T14:45:40.275Z,97812.28
2019-05-17T14:48:14.092Z,97815.31
2019-05-17T14:50:47.828Z,97813.97
2019-05-17T14:53:21.774Z,97814.02
2019-05-17T14:55:55.508Z,97815.57
2019-05-17T14:58:29.382Z,97815.70
2019-05-17T15:01:03.425Z,97816.27
2019-05-17T15:03:37.193Z,97822.08
2019-05-17T15:06:11.233Z,97815.05
2019-05-17T15:08:44.968Z,97825.59
2019-05-17T15:11:18.621Z,97822.08
2019-05-17T15:13:52.622Z,97825.80
2019-05-17T15:16:26.472Z,97838.42
2019-05-17T15:19:00.519Z,97835.22
2019-05-17T15:21:35.184Z,97832.53
2019-05-17T15:24:08.962Z,97834.39
2019-05-17T15:26:42.926Z,97832.19
2019-05-17T15:29:16.647Z,97837.25
2019-05-17T15:31:52.120Z,97836.22
2019-05-17T15:34:25.868Z,97834.57
2019-05-17T15:36:59.660Z,97832.66
2019-05-17T15:39:33.466Z,97828.75
2019-05-17T15:42:07.184Z,97829.76
2019-05-17T15:44:41.192Z,97820.69
2019-05-17T15:47:15.000Z,97815.31
2019-05-17T15:49:49.292Z,97821.52
2019-05-17T15:52:23.081Z,97829.37
2019-05-17T15:54:56.938Z,97823.99
2019-05-17T15:57:30.785Z,97825.16
2019-05-17T16:00:04.895Z,97828.36
2019-05-17T16:02:38.982Z,97833.74
2019-05-17T16:05:12.962Z,97835.09
2019-05-17T16:07:49.599Z,97835.09
2019-05-17T16:10:24.376Z,97842.45
2019-05-17T16:13:03.186Z,97839.43
2019-05-17T16:15:33.750Z,97842.12
2019-05-17T16:18:07.426Z,97837.70
2019-05-17T16:20:41.241Z,97835.73
2019-05-17T16:23:16.020Z,97838.42
2019-05-17T16:25:49.668Z,97845.14
2019-05-17T16:28:23.449Z,97842.64
2019-05-17T16:30:57.239Z,97848.84
2019-05-17T16:33:31.010Z,97848.53
2019-05-17T16:36:04.643Z,97851.22
2019-05-17T16:38:38.396Z,97849.05
2019-05-17T16:41:12.516Z,97842.33
2019-05-17T16:43:46.309Z,97841.98
2019-05-17T16:46:20.227Z,97839.82
2019-05-17T16:48:54.011Z,97837.13
2019-05-17T16:51:27.803Z,97832.92
2019-05-17T16:54:01.785Z,97830.71
2019-05-17T16:56:35.500Z,97831.05
2019-05-17T16:59:09.266Z,97836.44
2019-05-17T17:01:43.292Z,97838.30
2019-05-17T17:04:17.122Z,97833.92
2019-05-17T17:06:50.888Z,97837.13
2019-05-17T17:09:24.823Z,97834.44
2019-05-17T17:11:58.730Z,97825.03
2019-05-17T17:14:32.530Z,97822.86
2019-05-17T17:17:11.297Z,97826.06
2019-05-17T17:19:42.147Z,97832.79
2019-05-17T17:22:15.917Z,97831.57
2019-05-17T17:24:49.686Z,97840.91
2019-05-17T17:27:23.470Z,97835.65
2019-05-17T17:29:57.307Z,97834.31
2019-05-17T17:32:32.886Z,97829.23
2019-05-17T17:35:07.293Z,97833.79
2019-05-17T17:37:40.971Z,97833.79
2019-05-17T17:40:19.770Z,97825.15
2019-05-17T17:42:53.494Z,97825.97
2019-05-17T17:45:28.938Z,97819.64
2019-05-17T17:48:03.052Z,97822.34
2019-05-17T17:50:36.879Z,97825.84
2019-05-17T17:53:11.642Z,97823.38
2019-05-17T17:55:45.500Z,97826.06
2019-05-17T17:58:19.354Z,97828.75
2019-05-17T18:00:53.177Z,97824.72
2019-05-17T18:03:27.139Z,97827.58
2019-05-17T18:06:00.887Z,97832.14
2019-05-17T18:08:35.699Z,97836.17
2019-05-17T18:11:09.444Z,97841.24
2019-05-17T18:13:43.205Z,97838.55
2019-05-17T18:16:16.963Z,97836.34
2019-05-17T18:18:50.683Z,97838.22
2019-05-17T18:21:24.561Z,97830.66
2019-05-17T18:23:58.219Z,97819.39
2019-05-17T18:26:34.114Z,97812.14
2019-05-17T18:29:08.196Z,97815.88
2019-05-17T18:31:42.478Z,97816.91
2019-05-17T18:34:17.376Z,97820.09
2019-05-17T18:36:51.138Z,97822.47
2019-05-17T18:39:26.067Z,97821.64
2019-05-17T18:41:59.896Z,97825.67
2019-05-17T18:44:35.432Z,97827.67
2019-05-17T18:47:09.097Z,97824.98
2019-05-17T18:49:43.009Z,97835.91
2019-05-17T18:52:16.762Z,97833.74
2019-05-17T18:54:50.675Z,97845.50
2019-05-17T18:57:24.474Z,97843.85
2019-05-17T18:59:58.411Z,97842.51
2019-05-17T19:02:32.345Z,97845.20
2019-05-17T19:05:06.596Z,97853.27
2019-05-17T19:07:40.325Z,97860.81
2019-05-17T19:10:14.209Z,97863.20
2019-05-17T19:12:48.090Z,97866.40
2019-05-17T19:15:22.207Z,97878.50
2019-05-17T19:17:56.072Z,97868.75
2019-05-17T19:20:29.841Z,97864.72
2019-05-17T19:23:03.707Z,97867.09
2019-05-17T19:25:37.470Z,97870.09
2019-05-17T19:28:11.222Z,97875.47
2019-05-17T19:30:44.952Z,97863.89
2019-05-17T19:33:18.574Z,97867.61
2019-05-17T19:35:52.545Z,97866.78
2019-05-17T19:38:26.355Z,97874.34
2019-05-17T19:41:00.079Z,97866.27
2019-05-17T19:43:33.924Z,97869.96
2019-05-17T19:46:07.748Z,97859.86
2019-05-17T19:48:41.776Z,97870.61
2019-05-17T19:51:15.684Z,97876.50
2019-05-17T19:53:49.441Z,97878.89
2019-05-17T19:56:23.282Z,97880.02
2019-05-17T19:58:57.024Z,97879.20
2019-05-17T20:01:30.802Z,97874.85
2019-05-17T20:04:04.769Z,97877.55
2019-05-17T20:06:38.605Z,97881.23
2019-05-17T20:09:12.760Z,97875.55
2019-05-17T20:11:46.582Z,97874.20
2019-05-17T20:14:20.324Z,97870.82
2019-05-17T20:16:54.094Z,97875.86
2019-05-17T20:19:27.859Z,97865.10
2019-05-17T20:22:01.628Z,97876.50
2019-05-17T20:24:35.537Z,97876.69
2019-05-17T20:27:09.268Z,97875.03
2019-05-17T20:29:43.020Z,97880.41
2019-05-17T20:32:16.654Z,97873.69
2019-05-17T20:34:50.491Z,97875.55
2019-05-17T20:37:24.345Z,97876.89
2019-05-17T20:39:58.071Z,97880.59
2019-05-17T20:42:32.296Z,97876.55
2019-05-17T20:45:06.220Z,97873.86
2019-05-17T20:47:40.107Z,97870.87
2019-05-17T20:50:13.912Z,97863.11
2019-05-17T20:52:47.568Z,97860.42
2019-05-17T20:55:21.644Z,97862.28
2019-05-17T20:57:55.382Z,97863.32
2019-05-17T21:00:29.277Z,97860.94
2019-05-17T21:03:03.175Z,97862.49
2019-05-17T21:05:36.911Z,97857.42
2019-05-17T21:08:10.663Z,97854.91
2019-05-17T21:10:44.800Z,97845.02
2019-05-17T21:13:18.450Z,97848.19
2019-05-17T21:15:52.406Z,97844.67
2019-05-17T21:18:26.113Z,97843.16
2019-05-17T21:21:01.541Z,97842.33
2019-05-17T21:23:37.207Z,97850.05
2019-05-17T21:26:11.065Z,97839.30
2019-05-17T21:28:47.206Z,97835.27
2019-05-17T21:31:21.405Z,97832.27
2019-05-17T21:33:55.029Z,97838.47
2019-05-17T21:36:28.651Z,97834.95
2019-05-17T21:39:02.520Z,97832.27
2019-05-17T21:41:36.384Z,97837.64
2019-05-17T21:44:10.102Z,97837.30
2019-05-17T21:46:43.919Z,97830.27
2019-05-17T21:49:17.627Z,97841.86
2019-05-17T21:51:51.470Z,97841.03
2019-05-17T21:54:25.271Z,97838.34
2019-05-17T21:56:59.048Z,97841.03
2019-05-17T21:59:33.010Z,97847.23
2019-05-17T22:02:06.904Z,97846.23
2019-05-17T22:04:41.060Z,97840.64
2019-05-17T22:07:16.602Z,97844.02
2019-05-17T22:09:50.633Z,97842.38
2019-05-17T22:12:24.337Z,97842.38
2019-05-17T22:14:58.068Z,97846.23
2019-05-17T22:17:32.362Z,97841.03
2019-05-17T22:20:06.127Z,97846.71
2019-05-17T22:22:40.097Z,97844.23
2019-05-17T22:25:15.515Z,97850.57
2019-05-17T22:27:49.310Z,97847.36
2019-05-17T22:30:24.669Z,97846.23
2019-05-17T22:32:58.466Z,97844.37
2019-05-17T22:35:32.685Z,97848.06
2019-05-17T22:38:06.422Z,97848.06
2019-05-17T22:40:40.255Z,97853.95
2019-05-17T22:43:13.969Z,97845.38
2019-05-17T22:45:47.783Z,97856.33
2019-05-17T22:48:22.119Z,97850.95
2019-05-17T22:50:56.892Z,97847.75
2019-05-17T22:53:30.668Z,97846.41
2019-05-17T22:56:04.455Z,97843.92
2019-05-17T22:58:38.207Z,97851.47
2019-05-17T23:01:12.387Z,97845.76
2019-05-17T23:03:46.117Z,97841.23
2019-05-17T23:06:19.807Z,97844.11
2019-05-17T23:08:53.548Z,97841.41
2019-05-17T23:11:27.337Z,97838.21
2019-05-17T23:14:01.115Z,97834.70
2019-05-17T23:16:34.893Z,97826.32
2019-05-17T23:19:09.329Z,97830.66
2019-05-17T23:21:43.051Z,97837.90
2019-05-17T23:24:16.776Z,97832.52
2019-05-17T23:26:50.569Z,97827.66
2019-05-17T23:29:24.263Z,97828.16
2019-05-17T23:31:57.994Z,97818.43
2019-05-17T23:34:31.692Z,97823.30
2019-05-17T23:37:05.458Z,97825.46
2019-05-17T23:39:39.213Z,97831.36
2019-05-17T23:42:12.926Z,97818.43
2019-05-17T23:44:46.575Z,97825.16
2019-05-17T23:47:20.323Z,97821.64
2019-05-17T23:49:54.012Z,97820.81
2019-05-17T23:52:27.743Z,97818.95
2019-05-17T23:55:01.868Z,97816.78
2019-05-17T23:57:35.616Z,97820.30
